sensor_id;sensor_type;location;lat;lon;timestamp;P1;durP1;ratioP1;P2;durP2;ratioP2
18320;SDS011;54904;54.350;18.664;2023-04-06T00:01:22;7.87;;;3.47;;
18320;SDS011;54904;54.350;18.664;2023-04-06T00:03:49;6.30;;;3.13;;
18320;SDS011;54904;54.350;18.664;2023-04-06T00:06:16;6.50;;;3.20;;
18320;SDS011;54904;54.350;18.664;2023-04-06T00:08:43;5.97;;;2.50;;
18320;SDS011;54904;54.350;18.664;2023-04-06T00:11:10;4.20;;;2.50;;
18320;SDS011;54904;54.350;18.664;2023-04-06T00:13:38;3.73;;;2.10;;
18320;SDS011;54904;54.350;18.664;2023-04-06T00:16:05;4.03;;;2.13;;
18320;SDS011;54904;54.350;18.664;2023-04-06T00:18:35;5.10;;;2.67;;
18320;SDS011;54904;54.350;18.664;2023-04-06T00:21:03;6.13;;;2.30;;
18320;SDS011;54904;54.350;18.664;2023-04-06T00:23:30;4.47;;;2.47;;
18320;SDS011;54904;54.350;18.664;2023-04-06T00:25:58;2.63;;;1.87;;
18320;SDS011;54904;54.350;18.664;2023-04-06T00:28:25;4.33;;;2.60;;
18320;SDS011;54904;54.350;18.664;2023-04-06T00:30:53;3.23;;;2.70;;
18320;SDS011;54904;54.350;18.664;2023-04-06T00:33:21;3.23;;;2.57;;
18320;SDS011;54904;54.350;18.664;2023-04-06T00:35:50;7.20;;;3.13;;
18320;SDS011;54904;54.350;18.664;2023-04-06T00:38:17;5.33;;;2.90;;
18320;SDS011;54904;54.350;18.664;2023-04-06T00:40:44;5.27;;;3.20;;
18320;SDS011;54904;54.350;18.664;2023-04-06T00:43:14;6.23;;;3.70;;
18320;SDS011;54904;54.350;18.664;2023-04-06T00:45:41;4.87;;;2.80;;
18320;SDS011;54904;54.350;18.664;2023-04-06T00:48:10;4.30;;;2.77;;
18320;SDS011;54904;54.350;18.664;2023-04-06T00:50:37;3.90;;;2.30;;
18320;SDS011;54904;54.350;18.664;2023-04-06T00:53:05;4.23;;;2.60;;
18320;SDS011;54904;54.350;18.664;2023-04-06T00:55:32;5.03;;;2.50;;
18320;SDS011;54904;54.350;18.664;2023-04-06T00:58:01;10.20;;;3.03;;
18320;SDS011;54904;54.350;18.664;2023-04-06T01:00:35;4.63;;;3.17;;
18320;SDS011;54904;54.350;18.664;2023-04-06T01:03:02;3.60;;;2.20;;
18320;SDS011;54904;54.350;18.664;2023-04-06T01:05:37;2.37;;;2.10;;
18320;SDS011;54904;54.350;18.664;2023-04-06T01:08:11;3.17;;;1.80;;
18320;SDS011;54904;54.350;18.664;2023-04-06T01:10:38;2.43;;;1.97;;
18320;SDS011;54904;54.350;18.664;2023-04-06T01:13:16;4.73;;;2.03;;
18320;SDS011;54904;54.350;18.664;2023-04-06T01:15:48;2.23;;;1.93;;
18320;SDS011;54904;54.350;18.664;2023-04-06T01:18:25;3.97;;;1.83;;
18320;SDS011;54904;54.350;18.664;2023-04-06T01:21:00;2.07;;;1.70;;
18320;SDS011;54904;54.350;18.664;2023-04-06T01:23:29;2.10;;;1.83;;
18320;SDS011;54904;54.350;18.664;2023-04-06T01:25:56;2.33;;;1.80;;
18320;SDS011;54904;54.350;18.664;2023-04-06T01:28:24;2.90;;;1.80;;
18320;SDS011;54904;54.350;18.664;2023-04-06T01:31:06;3.03;;;1.50;;
18320;SDS011;54904;54.350;18.664;2023-04-06T01:33:42;1.70;;;1.60;;
18320;SDS011;54904;54.350;18.664;2023-04-06T01:36:13;2.60;;;1.97;;
18320;SDS011;54904;54.350;18.664;2023-04-06T01:38:43;2.07;;;1.77;;
18320;SDS011;54904;54.350;18.664;2023-04-06T01:41:10;4.50;;;1.60;;
18320;SDS011;54904;54.350;18.664;2023-04-06T01:43:47;2.53;;;1.87;;
18320;SDS011;54904;54.350;18.664;2023-04-06T01:46:14;2.70;;;2.10;;
18320;SDS011;54904;54.350;18.664;2023-04-06T01:48:43;2.83;;;1.87;;
18320;SDS011;54904;54.350;18.664;2023-04-06T01:51:19;2.60;;;2.03;;
18320;SDS011;54904;54.350;18.664;2023-04-06T01:53:59;3.90;;;2.70;;
18320;SDS011;54904;54.350;18.664;2023-04-06T01:56:49;3.20;;;2.30;;
18320;SDS011;54904;54.350;18.664;2023-04-06T01:59:39;3.50;;;2.47;;
18320;SDS011;54904;54.350;18.664;2023-04-06T02:02:14;3.67;;;2.57;;
18320;SDS011;54904;54.350;18.664;2023-04-06T02:04:51;4.63;;;2.77;;
18320;SDS011;54904;54.350;18.664;2023-04-06T02:07:18;2.97;;;2.67;;
18320;SDS011;54904;54.350;18.664;2023-04-06T02:09:47;5.83;;;3.10;;
18320;SDS011;54904;54.350;18.664;2023-04-06T02:12:22;7.63;;;3.53;;
18320;SDS011;54904;54.350;18.664;2023-04-06T02:14:49;3.57;;;3.27;;
18320;SDS011;54904;54.350;18.664;2023-04-06T02:17:17;4.53;;;3.37;;
18320;SDS011;54904;54.350;18.664;2023-04-06T02:19:44;4.97;;;3.00;;
18320;SDS011;54904;54.350;18.664;2023-04-06T02:22:11;4.20;;;3.00;;
18320;SDS011;54904;54.350;18.664;2023-04-06T02:24:38;3.87;;;2.53;;
18320;SDS011;54904;54.350;18.664;2023-04-06T02:27:06;5.60;;;2.90;;
18320;SDS011;54904;54.350;18.664;2023-04-06T02:29:33;3.40;;;2.70;;
18320;SDS011;54904;54.350;18.664;2023-04-06T02:32:02;3.00;;;2.50;;
18320;SDS011;54904;54.350;18.664;2023-04-06T02:34:31;5.13;;;3.00;;
18320;SDS011;54904;54.350;18.664;2023-04-06T02:36:58;2.83;;;2.20;;
18320;SDS011;54904;54.350;18.664;2023-04-06T02:39:26;3.93;;;2.67;;
18320;SDS011;54904;54.350;18.664;2023-04-06T02:41:54;4.23;;;2.50;;
18320;SDS011;54904;54.350;18.664;2023-04-06T02:44:25;4.67;;;2.23;;
18320;SDS011;54904;54.350;18.664;2023-04-06T02:46:52;4.27;;;2.37;;
18320;SDS011;54904;54.350;18.664;2023-04-06T02:49:20;3.70;;;2.70;;
18320;SDS011;54904;54.350;18.664;2023-04-06T02:51:48;2.97;;;2.67;;
18320;SDS011;54904;54.350;18.664;2023-04-06T02:54:25;6.83;;;3.10;;
18320;SDS011;54904;54.350;18.664;2023-04-06T02:56:53;4.57;;;2.57;;
18320;SDS011;54904;54.350;18.664;2023-04-06T02:59:22;3.20;;;2.87;;
18320;SDS011;54904;54.350;18.664;2023-04-06T03:02:00;4.40;;;2.90;;
18320;SDS011;54904;54.350;18.664;2023-04-06T03:04:28;3.60;;;2.63;;
18320;SDS011;54904;54.350;18.664;2023-04-06T03:06:58;4.23;;;2.73;;
18320;SDS011;54904;54.350;18.664;2023-04-06T03:09:33;5.23;;;2.97;;
18320;SDS011;54904;54.350;18.664;2023-04-06T03:12:03;5.00;;;3.03;;
18320;SDS011;54904;54.350;18.664;2023-04-06T03:14:38;2.83;;;2.37;;
18320;SDS011;54904;54.350;18.664;2023-04-06T03:17:07;4.50;;;2.37;;
18320;SDS011;54904;54.350;18.664;2023-04-06T03:19:34;6.00;;;2.70;;
18320;SDS011;54904;54.350;18.664;2023-04-06T03:22:02;4.10;;;2.70;;
18320;SDS011;54904;54.350;18.664;2023-04-06T03:24:29;3.97;;;2.97;;
18320;SDS011;54904;54.350;18.664;2023-04-06T03:26:57;5.33;;;3.40;;
18320;SDS011;54904;54.350;18.664;2023-04-06T03:29:26;4.13;;;2.70;;
18320;SDS011;54904;54.350;18.664;2023-04-06T03:31:53;3.20;;;2.53;;
18320;SDS011;54904;54.350;18.664;2023-04-06T03:34:32;7.97;;;3.20;;
18320;SDS011;54904;54.350;18.664;2023-04-06T03:37:00;3.87;;;2.80;;
18320;SDS011;54904;54.350;18.664;2023-04-06T03:39:28;3.77;;;2.60;;
18320;SDS011;54904;54.350;18.664;2023-04-06T03:41:56;4.13;;;2.80;;
18320;SDS011;54904;54.350;18.664;2023-04-06T03:44:46;3.80;;;2.73;;
18320;SDS011;54904;54.350;18.664;2023-04-06T03:47:13;6.93;;;2.93;;
18320;SDS011;54904;54.350;18.664;2023-04-06T03:49:44;4.93;;;3.10;;
18320;SDS011;54904;54.350;18.664;2023-04-06T03:52:14;4.70;;;2.67;;
18320;SDS011;54904;54.350;18.664;2023-04-06T03:54:41;6.23;;;2.90;;
18320;SDS011;54904;54.350;18.664;2023-04-06T03:57:09;3.67;;;2.60;;
18320;SDS011;54904;54.350;18.664;2023-04-06T03:59:36;7.90;;;3.33;;
18320;SDS011;54904;54.350;18.664;2023-04-06T04:02:03;6.13;;;3.33;;
18320;SDS011;54904;54.350;18.664;2023-04-06T04:04:31;5.03;;;2.83;;
18320;SDS011;54904;54.350;18.664;2023-04-06T04:06:59;3.53;;;2.60;;
18320;SDS011;54904;54.350;18.664;2023-04-06T04:09:26;5.07;;;3.00;;
18320;SDS011;54904;54.350;18.664;2023-04-06T04:11:53;4.37;;;2.67;;
18320;SDS011;54904;54.350;18.664;2023-04-06T04:14:20;4.80;;;3.03;;
18320;SDS011;54904;54.350;18.664;2023-04-06T04:16:48;3.43;;;2.47;;
18320;SDS011;54904;54.350;18.664;2023-04-06T04:19:15;3.50;;;2.70;;
18320;SDS011;54904;54.350;18.664;2023-04-06T04:21:42;2.90;;;2.40;;
18320;SDS011;54904;54.350;18.664;2023-04-06T04:24:14;5.30;;;3.23;;
18320;SDS011;54904;54.350;18.664;2023-04-06T04:26:41;4.73;;;2.90;;
18320;SDS011;54904;54.350;18.664;2023-04-06T04:29:08;4.27;;;2.73;;
18320;SDS011;54904;54.350;18.664;2023-04-06T04:31:36;5.57;;;3.10;;
18320;SDS011;54904;54.350;18.664;2023-04-06T04:34:10;3.33;;;2.30;;
18320;SDS011;54904;54.350;18.664;2023-04-06T04:36:37;5.90;;;3.00;;
18320;SDS011;54904;54.350;18.664;2023-04-06T04:39:09;3.70;;;2.57;;
18320;SDS011;54904;54.350;18.664;2023-04-06T04:41:42;6.70;;;3.60;;
18320;SDS011;54904;54.350;18.664;2023-04-06T04:44:11;4.73;;;3.17;;
18320;SDS011;54904;54.350;18.664;2023-04-06T04:46:38;5.70;;;2.80;;
18320;SDS011;54904;54.350;18.664;2023-04-06T04:49:07;5.97;;;2.97;;
18320;SDS011;54904;54.350;18.664;2023-04-06T04:51:34;4.67;;;2.73;;
18320;SDS011;54904;54.350;18.664;2023-04-06T04:54:08;5.07;;;2.93;;
18320;SDS011;54904;54.350;18.664;2023-04-06T04:56:35;4.43;;;2.80;;
18320;SDS011;54904;54.350;18.664;2023-04-06T04:59:14;3.80;;;3.10;;
18320;SDS011;54904;54.350;18.664;2023-04-06T05:01:48;2.73;;;2.30;;
18320;SDS011;54904;54.350;18.664;2023-04-06T05:04:16;4.43;;;2.60;;
18320;SDS011;54904;54.350;18.664;2023-04-06T05:06:43;5.03;;;3.00;;
18320;SDS011;54904;54.350;18.664;2023-04-06T05:09:10;4.63;;;2.83;;
18320;SDS011;54904;54.350;18.664;2023-04-06T05:11:40;4.20;;;3.03;;
18320;SDS011;54904;54.350;18.664;2023-04-06T05:14:07;5.73;;;3.10;;
18320;SDS011;54904;54.350;18.664;2023-04-06T05:16:37;4.93;;;2.90;;
18320;SDS011;54904;54.350;18.664;2023-04-06T05:19:05;5.33;;;2.73;;
18320;SDS011;54904;54.350;18.664;2023-04-06T05:21:39;5.13;;;3.00;;
18320;SDS011;54904;54.350;18.664;2023-04-06T05:24:07;3.27;;;2.43;;
18320;SDS011;54904;54.350;18.664;2023-04-06T05:26:35;8.03;;;3.23;;
18320;SDS011;54904;54.350;18.664;2023-04-06T05:29:08;6.77;;;2.90;;
18320;SDS011;54904;54.350;18.664;2023-04-06T05:31:38;5.97;;;3.10;;
18320;SDS011;54904;54.350;18.664;2023-04-06T05:34:05;6.10;;;3.17;;
18320;SDS011;54904;54.350;18.664;2023-04-06T05:36:35;13.63;;;3.40;;
18320;SDS011;54904;54.350;18.664;2023-04-06T05:39:09;5.73;;;3.07;;
18320;SDS011;54904;54.350;18.664;2023-04-06T05:41:44;8.20;;;3.23;;
18320;SDS011;54904;54.350;18.664;2023-04-06T05:44:12;6.57;;;2.87;;
18320;SDS011;54904;54.350;18.664;2023-04-06T05:46:44;10.23;;;3.30;;
18320;SDS011;54904;54.350;18.664;2023-04-06T05:49:15;6.03;;;3.27;;
18320;SDS011;54904;54.350;18.664;2023-04-06T05:51:42;4.30;;;2.93;;
18320;SDS011;54904;54.350;18.664;2023-04-06T05:54:10;5.80;;;3.10;;
18320;SDS011;54904;54.350;18.664;2023-04-06T05:56:38;4.47;;;3.07;;
18320;SDS011;54904;54.350;18.664;2023-04-06T05:59:08;4.03;;;2.50;;
18320;SDS011;54904;54.350;18.664;2023-04-06T06:01:35;6.10;;;2.97;;
18320;SDS011;54904;54.350;18.664;2023-04-06T06:04:05;5.43;;;3.00;;
18320;SDS011;54904;54.350;18.664;2023-04-06T06:06:35;5.90;;;2.57;;
18320;SDS011;54904;54.350;18.664;2023-04-06T06:09:15;10.50;;;4.10;;
18320;SDS011;54904;54.350;18.664;2023-04-06T06:11:55;17.47;;;5.20;;
18320;SDS011;54904;54.350;18.664;2023-04-06T06:14:26;14.80;;;5.73;;
18320;SDS011;54904;54.350;18.664;2023-04-06T06:16:54;13.50;;;5.77;;
18320;SDS011;54904;54.350;18.664;2023-04-06T06:19:22;16.73;;;6.00;;
18320;SDS011;54904;54.350;18.664;2023-04-06T06:21:53;7.33;;;4.10;;
18320;SDS011;54904;54.350;18.664;2023-04-06T06:24:20;5.83;;;3.57;;
18320;SDS011;54904;54.350;18.664;2023-04-06T06:26:48;4.43;;;3.40;;
18320;SDS011;54904;54.350;18.664;2023-04-06T06:29:16;4.97;;;2.67;;
18320;SDS011;54904;54.350;18.664;2023-04-06T06:31:43;7.63;;;3.27;;
18320;SDS011;54904;54.350;18.664;2023-04-06T06:34:14;4.50;;;2.87;;
18320;SDS011;54904;54.350;18.664;2023-04-06T06:36:43;6.37;;;2.93;;
18320;SDS011;54904;54.350;18.664;2023-04-06T06:39:12;5.30;;;2.80;;
18320;SDS011;54904;54.350;18.664;2023-04-06T06:41:39;9.60;;;3.30;;
18320;SDS011;54904;54.350;18.664;2023-04-06T06:44:06;11.23;;;3.43;;
18320;SDS011;54904;54.350;18.664;2023-04-06T06:46:34;3.90;;;2.73;;
18320;SDS011;54904;54.350;18.664;2023-04-06T06:49:01;8.97;;;3.23;;
18320;SDS011;54904;54.350;18.664;2023-04-06T06:51:29;6.63;;;3.60;;
18320;SDS011;54904;54.350;18.664;2023-04-06T06:53:57;8.27;;;3.60;;
18320;SDS011;54904;54.350;18.664;2023-04-06T06:56:24;11.63;;;4.47;;
18320;SDS011;54904;54.350;18.664;2023-04-06T06:58:53;5.90;;;3.47;;
18320;SDS011;54904;54.350;18.664;2023-04-06T07:01:20;10.57;;;3.50;;
18320;SDS011;54904;54.350;18.664;2023-04-06T07:03:48;9.37;;;3.50;;
18320;SDS011;54904;54.350;18.664;2023-04-06T07:06:15;8.43;;;3.10;;
18320;SDS011;54904;54.350;18.664;2023-04-06T07:08:42;5.70;;;2.73;;
18320;SDS011;54904;54.350;18.664;2023-04-06T07:11:10;7.27;;;3.27;;
18320;SDS011;54904;54.350;18.664;2023-04-06T07:13:37;4.63;;;3.10;;
18320;SDS011;54904;54.350;18.664;2023-04-06T07:16:04;14.33;;;3.53;;
18320;SDS011;54904;54.350;18.664;2023-04-06T07:18:32;7.13;;;2.93;;
18320;SDS011;54904;54.350;18.664;2023-04-06T07:20:59;10.80;;;2.90;;
18320;SDS011;54904;54.350;18.664;2023-04-06T07:23:26;2.90;;;2.30;;
18320;SDS011;54904;54.350;18.664;2023-04-06T07:25:53;3.23;;;2.00;;
18320;SDS011;54904;54.350;18.664;2023-04-06T07:28:21;9.40;;;3.70;;
18320;SDS011;54904;54.350;18.664;2023-04-06T07:30:49;2.93;;;2.50;;
18320;SDS011;54904;54.350;18.664;2023-04-06T07:33:16;8.20;;;3.30;;
18320;SDS011;54904;54.350;18.664;2023-04-06T07:35:44;2.93;;;2.30;;
18320;SDS011;54904;54.350;18.664;2023-04-06T07:38:11;4.43;;;2.50;;
18320;SDS011;54904;54.350;18.664;2023-04-06T07:40:39;3.00;;;2.20;;
18320;SDS011;54904;54.350;18.664;2023-04-06T07:43:06;2.63;;;2.20;;
18320;SDS011;54904;54.350;18.664;2023-04-06T07:45:36;2.37;;;2.17;;
18320;SDS011;54904;54.350;18.664;2023-04-06T07:48:03;3.10;;;2.30;;
18320;SDS011;54904;54.350;18.664;2023-04-06T07:50:31;2.47;;;1.80;;
18320;SDS011;54904;54.350;18.664;2023-04-06T07:52:59;5.53;;;2.53;;
18320;SDS011;54904;54.350;18.664;2023-04-06T07:55:27;4.67;;;2.73;;
18320;SDS011;54904;54.350;18.664;2023-04-06T07:57:54;3.57;;;2.30;;
18320;SDS011;54904;54.350;18.664;2023-04-06T08:00:21;3.00;;;2.27;;
18320;SDS011;54904;54.350;18.664;2023-04-06T08:02:50;3.10;;;2.20;;
18320;SDS011;54904;54.350;18.664;2023-04-06T08:05:17;1.73;;;1.60;;
18320;SDS011;54904;54.350;18.664;2023-04-06T08:07:44;2.23;;;1.50;;
18320;SDS011;54904;54.350;18.664;2023-04-06T08:10:11;1.60;;;1.50;;
18320;SDS011;54904;54.350;18.664;2023-04-06T08:12:38;1.53;;;1.43;;
18320;SDS011;54904;54.350;18.664;2023-04-06T08:15:05;1.20;;;1.10;;
18320;SDS011;54904;54.350;18.664;2023-04-06T08:17:33;3.90;;;1.27;;
18320;SDS011;54904;54.350;18.664;2023-04-06T08:20:01;0.97;;;0.90;;
18320;SDS011;54904;54.350;18.664;2023-04-06T08:22:29;0.83;;;0.83;;
18320;SDS011;54904;54.350;18.664;2023-04-06T08:24:56;1.70;;;1.20;;
18320;SDS011;54904;54.350;18.664;2023-04-06T08:27:23;1.30;;;1.13;;
18320;SDS011;54904;54.350;18.664;2023-04-06T08:29:50;4.57;;;1.13;;
18320;SDS011;54904;54.350;18.664;2023-04-06T08:32:17;1.20;;;1.10;;
18320;SDS011;54904;54.350;18.664;2023-04-06T08:34:44;1.27;;;1.17;;
18320;SDS011;54904;54.350;18.664;2023-04-06T08:37:13;1.80;;;1.17;;
18320;SDS011;54904;54.350;18.664;2023-04-06T08:39:40;2.17;;;1.40;;
18320;SDS011;54904;54.350;18.664;2023-04-06T08:42:10;2.40;;;1.20;;
18320;SDS011;54904;54.350;18.664;2023-04-06T08:44:42;1.23;;;1.03;;
18320;SDS011;54904;54.350;18.664;2023-04-06T08:47:11;1.30;;;1.00;;
18320;SDS011;54904;54.350;18.664;2023-04-06T08:49:38;1.47;;;1.20;;
18320;SDS011;54904;54.350;18.664;2023-04-06T08:52:05;3.33;;;1.00;;
18320;SDS011;54904;54.350;18.664;2023-04-06T08:54:34;1.73;;;0.80;;
18320;SDS011;54904;54.350;18.664;2023-04-06T08:57:01;2.30;;;0.93;;
18320;SDS011;54904;54.350;18.664;2023-04-06T08:59:31;1.13;;;1.00;;
18320;SDS011;54904;54.350;18.664;2023-04-06T09:01:58;0.70;;;0.70;;
18320;SDS011;54904;54.350;18.664;2023-04-06T09:04:29;0.90;;;0.70;;
18320;SDS011;54904;54.350;18.664;2023-04-06T09:06:58;0.80;;;0.80;;
18320;SDS011;54904;54.350;18.664;2023-04-06T09:09:25;0.87;;;0.80;;
18320;SDS011;54904;54.350;18.664;2023-04-06T09:11:53;5.27;;;1.03;;
18320;SDS011;54904;54.350;18.664;2023-04-06T09:14:33;1.50;;;0.90;;
18320;SDS011;54904;54.350;18.664;2023-04-06T09:17:01;1.73;;;1.23;;
18320;SDS011;54904;54.350;18.664;2023-04-06T09:19:28;1.43;;;1.33;;
18320;SDS011;54904;54.350;18.664;2023-04-06T09:22:01;2.63;;;1.43;;
18320;SDS011;54904;54.350;18.664;2023-04-06T09:24:38;1.27;;;1.10;;
18320;SDS011;54904;54.350;18.664;2023-04-06T09:27:08;0.90;;;0.90;;
18320;SDS011;54904;54.350;18.664;2023-04-06T09:29:35;4.70;;;1.20;;
18320;SDS011;54904;54.350;18.664;2023-04-06T09:32:03;1.67;;;0.87;;
18320;SDS011;54904;54.350;18.664;2023-04-06T09:34:30;1.47;;;1.37;;
18320;SDS011;54904;54.350;18.664;2023-04-06T09:36:58;2.23;;;1.73;;
18320;SDS011;54904;54.350;18.664;2023-04-06T09:39:25;1.10;;;1.00;;
18320;SDS011;54904;54.350;18.664;2023-04-06T09:41:52;1.00;;;0.90;;
18320;SDS011;54904;54.350;18.664;2023-04-06T09:44:22;1.07;;;0.80;;
18320;SDS011;54904;54.350;18.664;2023-04-06T09:46:50;0.80;;;0.80;;
18320;SDS011;54904;54.350;18.664;2023-04-06T09:49:19;0.73;;;0.70;;
18320;SDS011;54904;54.350;18.664;2023-04-06T09:51:48;2.23;;;1.10;;
18320;SDS011;54904;54.350;18.664;2023-04-06T09:54:22;5.87;;;1.20;;
18320;SDS011;54904;54.350;18.664;2023-04-06T09:59:47;4.60;;;0.90;;
18320;SDS011;54904;54.350;18.664;2023-04-06T10:02:23;5.20;;;1.20;;
18320;SDS011;54904;54.350;18.664;2023-04-06T10:04:59;3.83;;;1.27;;
18320;SDS011;54904;54.350;18.664;2023-04-06T10:07:31;0.83;;;0.80;;
18320;SDS011;54904;54.350;18.664;2023-04-06T10:10:00;1.30;;;0.60;;
18320;SDS011;54904;54.350;18.664;2023-04-06T10:12:29;1.03;;;0.70;;
18320;SDS011;54904;54.350;18.664;2023-04-06T10:14:58;0.80;;;0.77;;
18320;SDS011;54904;54.350;18.664;2023-04-06T10:17:25;1.03;;;0.93;;
18320;SDS011;54904;54.350;18.664;2023-04-06T10:19:53;1.20;;;0.83;;
18320;SDS011;54904;54.350;18.664;2023-04-06T10:22:26;0.80;;;0.70;;
18320;SDS011;54904;54.350;18.664;2023-04-06T10:24:58;1.37;;;0.70;;
18320;SDS011;54904;54.350;18.664;2023-04-06T10:27:29;0.70;;;0.70;;
18320;SDS011;54904;54.350;18.664;2023-04-06T10:30:02;1.00;;;0.90;;
18320;SDS011;54904;54.350;18.664;2023-04-06T10:32:34;0.63;;;0.63;;
18320;SDS011;54904;54.350;18.664;2023-04-06T10:35:08;2.47;;;0.97;;
18320;SDS011;54904;54.350;18.664;2023-04-06T10:37:49;3.67;;;0.77;;
18320;SDS011;54904;54.350;18.664;2023-04-06T10:40:21;0.50;;;0.50;;
18320;SDS011;54904;54.350;18.664;2023-04-06T10:42:50;1.30;;;0.77;;
18320;SDS011;54904;54.350;18.664;2023-04-06T10:45:23;2.60;;;0.60;;
18320;SDS011;54904;54.350;18.664;2023-04-06T10:47:52;2.77;;;0.70;;
18320;SDS011;54904;54.350;18.664;2023-04-06T10:50:19;0.50;;;0.50;;
18320;SDS011;54904;54.350;18.664;2023-04-06T10:52:47;0.50;;;0.50;;
18320;SDS011;54904;54.350;18.664;2023-04-06T10:55:25;3.80;;;1.00;;
18320;SDS011;54904;54.350;18.664;2023-04-06T10:57:53;0.80;;;0.80;;
18320;SDS011;54904;54.350;18.664;2023-04-06T11:00:20;1.07;;;1.00;;
18320;SDS011;54904;54.350;18.664;2023-04-06T11:02:49;1.87;;;0.70;;
18320;SDS011;54904;54.350;18.664;2023-04-06T11:05:16;0.60;;;0.60;;
18320;SDS011;54904;54.350;18.664;2023-04-06T11:07:43;5.20;;;0.90;;
18320;SDS011;54904;54.350;18.664;2023-04-06T11:10:10;3.07;;;0.60;;
18320;SDS011;54904;54.350;18.664;2023-04-06T11:12:37;0.50;;;0.50;;
18320;SDS011;54904;54.350;18.664;2023-04-06T11:15:05;1.90;;;0.67;;
18320;SDS011;54904;54.350;18.664;2023-04-06T11:17:34;4.03;;;0.90;;
18320;SDS011;54904;54.350;18.664;2023-04-06T11:20:04;3.23;;;0.80;;
18320;SDS011;54904;54.350;18.664;2023-04-06T11:22:36;3.13;;;0.87;;
18320;SDS011;54904;54.350;18.664;2023-04-06T11:25:13;1.20;;;0.90;;
18320;SDS011;54904;54.350;18.664;2023-04-06T11:27:42;2.10;;;0.87;;
18320;SDS011;54904;54.350;18.664;2023-04-06T11:30:09;1.73;;;0.90;;
18320;SDS011;54904;54.350;18.664;2023-04-06T11:32:39;1.00;;;0.80;;
18320;SDS011;54904;54.350;18.664;2023-04-06T11:35:09;3.90;;;1.00;;
18320;SDS011;54904;54.350;18.664;2023-04-06T11:37:37;1.57;;;0.90;;
18320;SDS011;54904;54.350;18.664;2023-04-06T11:40:07;5.17;;;1.23;;
18320;SDS011;54904;54.350;18.664;2023-04-06T11:42:35;2.30;;;1.20;;
18320;SDS011;54904;54.350;18.664;2023-04-06T11:45:03;3.60;;;1.00;;
18320;SDS011;54904;54.350;18.664;2023-04-06T11:47:31;3.03;;;1.10;;
18320;SDS011;54904;54.350;18.664;2023-04-06T11:50:05;1.10;;;1.00;;
18320;SDS011;54904;54.350;18.664;2023-04-06T11:52:34;2.67;;;0.93;;
18320;SDS011;54904;54.350;18.664;2023-04-06T11:55:10;0.70;;;0.70;;
18320;SDS011;54904;54.350;18.664;2023-04-06T11:57:41;0.70;;;0.70;;
18320;SDS011;54904;54.350;18.664;2023-04-06T12:00:09;1.07;;;0.60;;
18320;SDS011;54904;54.350;18.664;2023-04-06T12:02:37;0.80;;;0.80;;
18320;SDS011;54904;54.350;18.664;2023-04-06T12:05:05;1.90;;;0.80;;
18320;SDS011;54904;54.350;18.664;2023-04-06T12:07:34;1.77;;;1.00;;
18320;SDS011;54904;54.350;18.664;2023-04-06T12:10:02;3.47;;;1.20;;
18320;SDS011;54904;54.350;18.664;2023-04-06T12:12:30;9.43;;;1.30;;
18320;SDS011;54904;54.350;18.664;2023-04-06T12:14:58;3.63;;;1.40;;
18320;SDS011;54904;54.350;18.664;2023-04-06T12:17:25;1.20;;;0.80;;
18320;SDS011;54904;54.350;18.664;2023-04-06T12:19:54;0.93;;;0.77;;
18320;SDS011;54904;54.350;18.664;2023-04-06T12:22:21;3.40;;;1.00;;
18320;SDS011;54904;54.350;18.664;2023-04-06T12:24:50;2.50;;;1.00;;
18320;SDS011;54904;54.350;18.664;2023-04-06T12:27:17;1.93;;;1.00;;
18320;SDS011;54904;54.350;18.664;2023-04-06T12:29:44;1.47;;;0.87;;
18320;SDS011;54904;54.350;18.664;2023-04-06T12:32:11;0.63;;;0.53;;
18320;SDS011;54904;54.350;18.664;2023-04-06T12:34:38;0.50;;;0.50;;
18320;SDS011;54904;54.350;18.664;2023-04-06T12:37:05;0.67;;;0.60;;
18320;SDS011;54904;54.350;18.664;2023-04-06T12:39:33;2.40;;;0.60;;
18320;SDS011;54904;54.350;18.664;2023-04-06T12:42:02;0.60;;;0.60;;
18320;SDS011;54904;54.350;18.664;2023-04-06T12:44:29;3.90;;;0.70;;
18320;SDS011;54904;54.350;18.664;2023-04-06T12:46:56;0.90;;;0.80;;
18320;SDS011;54904;54.350;18.664;2023-04-06T12:49:24;7.20;;;0.90;;
18320;SDS011;54904;54.350;18.664;2023-04-06T12:51:52;2.93;;;0.90;;
18320;SDS011;54904;54.350;18.664;2023-04-06T12:54:19;3.40;;;1.13;;
18320;SDS011;54904;54.350;18.664;2023-04-06T12:56:46;2.73;;;0.80;;
18320;SDS011;54904;54.350;18.664;2023-04-06T12:59:17;1.37;;;1.27;;
18320;SDS011;54904;54.350;18.664;2023-04-06T13:01:47;0.97;;;0.90;;
18320;SDS011;54904;54.350;18.664;2023-04-06T13:04:14;0.73;;;0.60;;
18320;SDS011;54904;54.350;18.664;2023-04-06T13:06:41;1.50;;;0.93;;
18320;SDS011;54904;54.350;18.664;2023-04-06T13:09:08;0.70;;;0.70;;
18320;SDS011;54904;54.350;18.664;2023-04-06T13:11:37;2.53;;;1.00;;
18320;SDS011;54904;54.350;18.664;2023-04-06T13:14:06;1.13;;;0.70;;
18320;SDS011;54904;54.350;18.664;2023-04-06T13:16:34;0.70;;;0.70;;
18320;SDS011;54904;54.350;18.664;2023-04-06T13:19:02;3.13;;;0.97;;
18320;SDS011;54904;54.350;18.664;2023-04-06T13:21:29;5.00;;;1.00;;
18320;SDS011;54904;54.350;18.664;2023-04-06T13:23:57;0.90;;;0.90;;
18320;SDS011;54904;54.350;18.664;2023-04-06T13:26:24;2.10;;;0.50;;
18320;SDS011;54904;54.350;18.664;2023-04-06T13:28:51;0.60;;;0.60;;
18320;SDS011;54904;54.350;18.664;2023-04-06T13:31:18;3.60;;;0.80;;
18320;SDS011;54904;54.350;18.664;2023-04-06T13:33:47;0.93;;;0.93;;
18320;SDS011;54904;54.350;18.664;2023-04-06T13:36:14;1.13;;;0.60;;
18320;SDS011;54904;54.350;18.664;2023-04-06T13:38:41;0.60;;;0.60;;
18320;SDS011;54904;54.350;18.664;2023-04-06T13:41:08;1.57;;;0.70;;
18320;SDS011;54904;54.350;18.664;2023-04-06T13:43:35;2.17;;;0.90;;
18320;SDS011;54904;54.350;18.664;2023-04-06T13:46:02;0.70;;;0.70;;
18320;SDS011;54904;54.350;18.664;2023-04-06T13:48:30;0.77;;;0.77;;
18320;SDS011;54904;54.350;18.664;2023-04-06T13:50:58;1.83;;;0.70;;
18320;SDS011;54904;54.350;18.664;2023-04-06T13:53:35;2.43;;;0.70;;
18320;SDS011;54904;54.350;18.664;2023-04-06T13:56:02;0.50;;;0.50;;
18320;SDS011;54904;54.350;18.664;2023-04-06T13:58:29;0.80;;;0.80;;
18320;SDS011;54904;54.350;18.664;2023-04-06T14:01:01;2.13;;;0.50;;
18320;SDS011;54904;54.350;18.664;2023-04-06T14:03:28;2.20;;;1.07;;
18320;SDS011;54904;54.350;18.664;2023-04-06T14:05:56;2.80;;;1.00;;
18320;SDS011;54904;54.350;18.664;2023-04-06T14:08:25;0.80;;;0.70;;
18320;SDS011;54904;54.350;18.664;2023-04-06T14:10:52;3.40;;;0.90;;
18320;SDS011;54904;54.350;18.664;2023-04-06T14:13:20;1.33;;;0.80;;
18320;SDS011;54904;54.350;18.664;2023-04-06T14:15:52;8.17;;;1.30;;
18320;SDS011;54904;54.350;18.664;2023-04-06T14:18:20;2.20;;;0.97;;
18320;SDS011;54904;54.350;18.664;2023-04-06T14:20:53;1.40;;;1.10;;
18320;SDS011;54904;54.350;18.664;2023-04-06T14:23:22;1.67;;;1.20;;
18320;SDS011;54904;54.350;18.664;2023-04-06T14:25:51;0.70;;;0.70;;
18320;SDS011;54904;54.350;18.664;2023-04-06T14:28:18;1.07;;;1.00;;
18320;SDS011;54904;54.350;18.664;2023-04-06T14:30:47;2.53;;;1.53;;
18320;SDS011;54904;54.350;18.664;2023-04-06T14:33:14;1.30;;;1.20;;
18320;SDS011;54904;54.350;18.664;2023-04-06T14:35:41;1.07;;;0.87;;
18320;SDS011;54904;54.350;18.664;2023-04-06T14:38:08;2.30;;;1.03;;
18320;SDS011;54904;54.350;18.664;2023-04-06T14:40:37;0.90;;;0.90;;
18320;SDS011;54904;54.350;18.664;2023-04-06T14:43:04;3.53;;;1.20;;
18320;SDS011;54904;54.350;18.664;2023-04-06T14:45:32;2.40;;;1.00;;
18320;SDS011;54904;54.350;18.664;2023-04-06T14:47:59;1.60;;;0.93;;